Vremea mâine în Vicovu De Sus - Romania

Vrei sa afli care e starea vremii acum in Suceava - Romania? Dorim sa iti furnizam starea vremii pentru Suceava - Romania. Starea vremii Suceava - Romania pentru astazi.

Vremea mâine în Vicovu De Sus

Temperatura minimă:
9.8 °C

Temperatura maximă:
16.2 °C

Mâine va fi: Ploi moderate
Precipitații: 90 %
Umiditate: 88%
Viteza maximă vânt mâine:
7.2 km/h

Evoluția vremii in Vicovu De Sus pe ore mâine

Ora: 15:00
Temperatura: °C
Sansa de precipitatii: %
Ora Descriere Temp Se simte Precipitatii Umiditate Vant
00:00Ceata9.9°9.5°89%94%WSW 5.4 KM/H
01:00Ceata9.9°9.5°72%94%WSW 5.4 KM/H
02:009.8°9.5°0%94%WSW 5 KM/H
03:0010°10°0%93%WSW 4.3 KM/H
04:00Patchy rain nearby10.2°10.2°100%93%WSW 4.3 KM/H
05:00Burniță ușoară10.6°10.9°100%94%W 3.6 KM/H
06:00Burniță ușoară10.8°10.8°100%96%WNW 1.8 KM/H
07:00Burniță ușoară11.2°11.2°100%97%E 0.7 KM/H
08:00Ceata11.6°11.6°88%95%SE 1.8 KM/H
09:00Burniță ușoară13°13°100%88%SE 2.5 KM/H
10:00Ploi usoare14.4°14.4°100%81%SSE 2.9 KM/H
11:00Ploi usoare15°15.1°100%78%SE 1.4 KM/H
12:00Ploi usoare15.7°15.7°100%76%ENE 1.4 KM/H
13:00Ploi usoare16.2°16.2°100%76%NE 2.9 KM/H
14:00Ploi usoare16.2°16.2°100%75%NE 4.7 KM/H
15:00Ploi usoare16.1°16.1°100%76%ENE 6.5 KM/H
16:00Patchy light rain in area with thunder15.9°15.9°100%78%ENE 7.2 KM/H
17:00Ploi usoare15.3°15.3°100%81%ENE 6.8 KM/H
18:00Ploi usoare14.5°14.7°100%85%ENE 6.1 KM/H
19:00Patchy rain nearby13.6°14°100%90%ENE 4.7 KM/H
20:00Ceata12.8°13.2°100%95%E 4 KM/H
21:00Ceata10.5°11°78%97%E 3.2 KM/H
22:00Ceata10.9°10.9°76%97%NE 2.5 KM/H
23:00Ceata10.2°10.4°77%98%NNE 3.6 KM/H




tutorials